Time;durP1;ratioP1;P1;durP2;ratioP2;P2;SDS_P1;SDS_P2;PMS_P1;PMS_P2;Temp;Humidity;BMP_temperature;BMP_pressure;BME280_temperature;BME280_humidity;BME280_pressure;Samples;Min_cycle;Max_cycle;Signal;HPM_P1;HPM_P2
2022/01/05 00:00:56;;;;;;;39.35;24.77;;;5.30;84.40;;;4.06;79.78;95236.09;3927631;34;20754;-84
2022/01/05 00:03:22;;;;;;;39.45;24.65;;;5.30;84.40;;;4.05;79.77;95232.53;3969566;34;20045;-84
2022/01/05 00:05:48;;;;;;;41.53;25.15;;;5.30;84.40;;;4.05;79.78;95229.81;3928613;34;20221;-84
2022/01/05 00:08:16;;;;;;;38.70;24.00;;;5.30;84.20;;;4.06;79.76;95238.78;3927755;34;20308;-84
2022/01/05 00:10:43;;;;;;;37.92;25.35;;;5.30;84.30;;;4.07;79.96;95240.41;3949283;34;20598;-84
2022/01/05 00:13:09;;;;;;;38.03;23.65;;;5.30;84.30;;;4.05;80.10;95237.16;3925866;34;20017;-84
2022/01/05 00:15:35;;;;;;;36.45;24.35;;;5.30;84.10;;;4.06;79.96;95244.22;3925106;34;20017;-84
2022/01/05 00:18:02;;;;;;;39.10;23.95;;;5.30;84.40;;;4.04;79.59;95257.97;3923642;34;20604;-84
2022/01/05 00:20:30;;;;;;;39.30;24.23;;;5.30;84.30;;;4.06;80.18;95263.16;3902506;34;20623;-84
2022/01/05 00:22:56;;;;;;;35.92;23.67;;;5.30;84.30;;;4.04;80.26;95257.97;3944056;34;20584;-84
2022/01/05 00:25:23;;;;;;;35.35;22.95;;;5.30;84.50;;;4.03;79.97;95253.63;3923941;34;20413;-84
2022/01/05 00:27:49;;;;;;;35.53;22.08;;;5.30;84.40;;;4.04;79.79;95249.84;3920809;35;20525;-83
2022/01/05 00:30:15;;;;;;;36.45;23.08;;;5.30;84.30;;;4.04;80.01;95247.16;3962696;35;19999;-84
2022/01/05 00:32:41;;;;;;;39.30;23.80;;;5.30;84.30;;;4.05;79.96;95253.41;3920481;35;20312;-84
2022/01/05 00:35:08;;;;;;;37.70;23.52;;;5.30;84.40;;;4.03;79.84;95250.94;3919984;35;20392;-84
2022/01/05 00:37:35;;;;;;;37.90;23.85;;;5.30;84.30;;;4.04;nan;95251.75;3940540;35;20296;-84
2022/01/05 00:40:03;;;;;;;38.00;23.50;;;5.30;84.30;;;4.03;79.75;95250.94;3920118;35;20207;-84
2022/01/05 00:42:30;;;;;;;40.30;24.25;;;5.30;84.20;;;4.03;79.96;95255.53;3961364;35;20308;-84
2022/01/05 00:44:56;;;;;;;40.35;24.25;;;5.30;84.40;;;4.03;80.29;95264.47;3920278;35;20269;-84
2022/01/05 00:47:22;;;;;;;38.05;24.20;;;5.30;84.50;;;4.04;80.14;95271.53;3920636;35;20010;-83
2022/01/05 00:49:49;;;;;;;41.40;24.73;;;5.30;84.20;;;4.03;79.72;95271.78;3919076;35;20342;-84
2022/01/05 00:52:15;;;;;;;34.55;22.30;;;5.30;84.20;;;4.02;79.86;95262.03;3920149;35;20297;-84
2022/01/05 00:54:41;;;;;;;39.17;24.30;;;5.30;84.30;;;4.02;79.91;95270.16;3957240;35;20337;-84
2022/01/05 00:57:07;;;;;;;36.25;22.63;;;5.30;84.50;;;4.01;79.92;95263.88;3940986;35;20015;-84
2022/01/05 00:59:34;;;;;;;35.05;21.27;;;5.30;84.30;;;4.02;79.65;95264.72;3941114;35;20299;-84
2022/01/05 01:02:00;;;;;;;36.72;22.67;;;5.30;84.20;;;4.01;80.07;95269.31;3920758;35;20095;-84
2022/01/05 01:04:26;;;;;;;39.95;24.00;;;5.30;84.20;;;3.99;79.54;95269.56;3941043;35;20343;-84
2022/01/05 01:06:53;;;;;;;33.72;21.85;;;5.30;84.30;;;4.02;79.88;95272.84;3942395;35;20332;-84
2022/01/05 01:09:19;;;;;;;35.08;22.42;;;5.30;84.40;;;3.99;79.75;95264.16;3943059;34;20152;-84
2022/01/05 01:11:45;;;;;;;33.20;20.55;;;5.30;84.40;;;3.99;80.03;95266.88;3944085;35;20006;-84
2022/01/05 01:14:12;;;;;;;34.00;21.80;;;5.30;84.10;;;3.98;79.35;95265.22;3930910;35;20314;-84
2022/01/05 01:16:38;;;;;;;35.25;22.30;;;5.20;84.00;;;3.99;79.97;95269.56;3943381;34;20342;-83
2022/01/05 01:19:04;;;;;;;33.75;21.17;;;5.30;84.30;;;3.98;80.11;95254.41;3964709;35;20010;-83
2022/01/05 01:21:31;;;;;;;36.00;22.80;;;5.30;84.40;;;3.99;79.88;95260.66;3922763;34;20301;-84
2022/01/05 01:23:57;;;;;;;33.38;22.13;;;5.20;84.20;;;3.99;79.81;95261.44;3965239;34;20086;-84
2022/01/05 01:26:27;;;;;;;37.35;22.52;;;5.30;84.20;;;3.99;79.72;95260.66;3944216;35;20327;-84
2022/01/05 01:28:54;;;;;;;33.20;20.67;;;5.20;84.10;;;3.97;80.03;95263.59;3946114;35;20053;-84
2022/01/05 01:31:20;;;;;;;35.90;21.83;;;5.20;84.00;;;3.98;80.07;95259.81;3946154;35;20042;-84
2022/01/05 01:33:47;;;;;;;35.08;21.30;;;5.30;84.20;;;3.97;79.55;95258.16;3925480;35;20336;-84
2022/01/05 01:36:13;;;;;;;30.85;20.00;;;5.20;84.10;;;3.97;79.76;95257.38;3925438;35;20077;-84
2022/01/05 01:38:41;;;;;;;32.78;20.27;;;5.20;84.30;;;3.98;79.56;95264.41;3928116;34;20566;-84
2022/01/05 01:41:07;;;;;;;33.80;20.92;;;5.20;84.00;;;3.96;79.94;95261.94;3968959;34;20006;-83
2022/01/05 01:43:34;;;;;;;33.33;20.67;;;5.20;84.00;;;3.97;79.92;95263.59;3945965;34;20302;-84
2022/01/05 01:46:01;;;;;;;34.63;21.13;;;5.20;84.20;;;3.97;79.65;95263.59;3966136;34;20069;-84
2022/01/05 01:48:27;;;;;;;32.90;19.42;;;5.20;84.00;;;3.96;79.93;95261.94;3947624;34;20072;-84
2022/01/05 01:50:53;;;;;;;33.85;20.58;;;5.20;84.00;;;3.98;79.47;95265.22;3966822;34;20021;-84
2022/01/05 01:53:19;;;;;;;35.47;21.05;;;5.20;84.10;;;3.96;79.78;95258.44;3968042;34;20444;-84
2022/01/05 01:55:48;;;;;;;34.70;20.77;;;5.20;84.00;;;3.95;79.74;95256.78;3905696;34;20273;-84
2022/01/05 01:58:14;;;;;;;33.90;20.95;;;5.20;84.10;;;3.94;80.15;95253.25;3906789;34;20331;-84
2022/01/05 02:00:41;;;;;;;35.08;20.73;;;5.20;84.20;;;3.96;79.88;95259.25;3947087;34;20395;-84
2022/01/05 02:03:07;;;;;;;32.67;20.10;;;5.20;84.00;;;3.96;80.08;95259.25;3967912;34;20041;-84
2022/01/05 02:05:33;;;;;;;31.08;19.20;;;5.20;84.10;;;3.95;79.46;95252.19;3905265;34;20315;-84
2022/01/05 02:08:02;;;;;;;33.85;19.33;;;5.20;84.10;;;3.94;79.72;95247.84;3946180;34;20617;-84
2022/01/05 02:10:28;;;;;;;29.77;18.85;;;5.20;84.30;;;3.95;79.79;95246.75;3906596;34;20629;-84
2022/01/05 02:12:54;;;;;;;29.80;18.70;;;5.20;84.20;;;3.96;80.16;95248.41;3966463;34;20213;-84
2022/01/05 02:15:21;;;;;;;30.40;19.08;;;5.20;84.20;;;3.95;79.92;95246.75;3925108;34;20395;-84
2022/01/05 02:20:29;;;;;;;30.23;18.83;;;5.20;84.00;;;3.95;79.65;95243.25;3948026;34;20348;-84
2022/01/05 02:22:56;;;;;;;28.48;18.58;;;5.20;84.00;;;3.96;79.70;95247.59;3986125;34;20714;-84
2022/01/05 02:25:23;;;;;;;27.55;17.70;;;5.20;84.00;;;3.95;nan;95246.75;3902497;34;20013;-84
2022/01/05 02:27:52;;;;;;;29.55;17.95;;;5.20;84.00;;;3.95;79.51;95246.75;3964391;34;20025;-84
2022/01/05 02:30:26;;;;;;;33.03;18.88;;;5.20;84.10;;;3.95;79.87;95248.66;3944762;34;20072;-84
2022/01/05 02:32:52;;;;;;;31.58;18.13;;;5.20;84.00;;;3.96;80.05;95244.91;3945341;34;20013;-84
2022/01/05 02:35:18;;;;;;;31.17;18.88;;;5.20;84.20;;;3.95;79.88;95238.66;3941408;34;20396;-84
2022/01/05 02:37:51;;;;;;;33.13;18.60;;;5.20;84.20;;;3.96;79.83;95245.69;3903176;34;20297;-84
2022/01/05 02:40:20;;;;;;;28.85;16.98;;;5.20;84.10;;;3.95;79.74;95235.94;3922759;34;20273;-84
2022/01/05 02:42:47;;;;;;;31.45;18.38;;;5.20;84.10;;;3.95;80.00;95243.25;3942776;34;20608;-85
2022/01/05 02:45:14;;;;;;;29.27;16.65;;;5.20;85.00;;;3.94;80.04;95237.00;3963539;34;20017;-84
2022/01/05 02:47:40;;;;;;;31.42;17.45;;;5.20;84.10;;;3.94;79.45;95237.00;3933282;34;20233;-84
2022/01/05 02:50:09;;;;;;;29.33;17.35;;;5.20;84.00;;;3.93;79.80;95238.09;3908873;34;20394;-84
2022/01/05 02:52:36;;;;;;;26.98;17.63;;;5.20;84.10;;;3.94;80.00;95236.19;3905768;34;20284;-84
2022/01/05 02:55:03;;;;;;;26.23;16.25;;;5.20;84.10;;;3.95;79.92;95233.22;3906801;34;20009;-84
2022/01/05 02:57:29;;;;;;;28.25;16.33;;;5.20;84.30;;;3.94;79.93;95237.00;3928172;34;20020;-84
2022/01/05 02:59:56;;;;;;;26.33;16.38;;;5.20;84.20;;;3.93;80.01;95238.09;3948366;34;20288;-84
2022/01/05 03:02:22;;;;;;;27.27;16.83;;;5.20;84.20;;;3.95;80.32;95249.47;3969577;34;20013;-85
2022/01/05 03:04:49;;;;;;;26.05;16.85;;;5.20;84.30;;;3.95;80.15;95249.47;3907234;34;20304;-84
2022/01/05 03:07:16;;;;;;;27.33;16.73;;;5.20;84.40;;;3.95;79.95;95251.38;3908359;34;20251;-84
2022/01/05 03:09:43;;;;;;;24.13;15.38;;;5.20;84.20;;;3.94;79.84;95255.97;3969064;34;20225;-84
2022/01/05 03:12:11;;;;;;;26.35;15.82;;;5.20;84.10;;;3.95;80.02;95245.97;3968779;34;20294;-84
2022/01/05 03:14:37;;;;;;;28.25;16.02;;;5.20;84.10;;;3.95;80.03;95260.31;3946702;34;20014;-83
2022/01/05 03:17:04;;;;;;;23.33;16.00;;;5.20;84.10;;;3.94;79.76;95255.16;3906734;34;20318;-84
2022/01/05 03:19:30;;;;;;;25.27;16.05;;;5.20;84.20;;;3.94;79.68;95252.44;3968496;34;20009;-85
2022/01/05 03:21:57;;;;;;;30.48;16.35;;;5.20;84.10;;;3.94;79.85;95253.25;3968246;34;20320;-85
2022/01/05 03:24:23;;;;;;;23.90;14.65;;;5.20;84.30;;;3.93;79.95;95240.81;3968200;34;20419;-86
2022/01/05 03:26:49;;;;;;;28.08;15.55;;;5.20;84.30;;;3.93;79.87;95246.22;3968070;34;20344;-85
2022/01/05 03:29:16;;;;;;;22.02;14.07;;;5.20;84.30;;;3.94;79.67;95247.84;3968212;34;20289;-85
2022/01/05 03:31:42;;;;;;;25.02;15.93;;;5.20;84.30;;;3.94;80.23;95253.25;3906822;34;20254;-85
2022/01/05 03:34:16;;;;;;;22.65;14.52;;;5.20;84.40;;;3.92;79.84;95247.28;3949100;34;20325;-85
2022/01/05 03:36:42;;;;;;;23.08;14.40;;;5.20;84.20;;;3.94;80.07;95241.63;3969912;34;20002;-85
2022/01/05 03:39:08;;;;;;;22.13;14.65;;;5.20;84.30;;;3.92;80.20;95239.16;3946139;34;20333;-85
2022/01/05 03:41:35;;;;;;;24.63;14.23;;;5.20;84.20;;;3.93;79.80;95240.81;3990085;34;20352;-85
2022/01/05 03:44:01;;;;;;;24.67;15.77;;;5.20;84.10;;;3.93;80.09;95238.09;3927297;34;20354;-85
2022/01/05 03:46:28;;;;;;;24.05;14.77;;;5.20;84.30;;;3.93;80.07;95239.97;3947502;34;20289;-85
2022/01/05 03:48:54;;;;;;;22.15;14.20;;;5.20;84.40;;;3.93;80.30;95239.97;3906474;34;20018;-85
2022/01/05 03:51:20;;;;;;;20.97;13.57;;;5.20;84.40;;;3.92;80.08;95233.75;3988869;34;20029;-85
2022/01/05 03:53:47;;;;;;;24.50;14.75;;;5.20;84.40;;;3.92;80.19;95239.16;3966564;34;20643;-85
2022/01/05 03:56:13;;;;;;;22.23;13.30;;;5.20;84.30;;;3.91;79.74;95226.69;3988852;34;20268;-85
2022/01/05 03:58:39;;;;;;;21.48;13.40;;;5.20;84.30;;;3.91;79.86;95231.28;3964896;34;20002;-85
2022/01/05 04:01:05;;;;;;;22.75;14.25;;;5.20;84.40;;;3.89;80.01;95236.97;3966620;34;20434;-85
2022/01/05 04:03:32;;;;;;;23.63;13.90;;;5.20;84.60;;;3.90;80.04;95229.66;3966375;34;20310;-85
2022/01/05 04:05:58;;;;;;;23.15;13.98;;;5.20;84.30;;;3.92;80.22;95232.91;3944967;34;20037;-85
2022/01/05 04:08:24;;;;;;;21.02;13.90;;;5.20;84.50;;;3.90;80.03;95229.66;3966039;34;20021;-85
2022/01/05 04:10:50;;;;;;;20.77;13.55;;;5.20;84.40;;;3.92;79.80;95244.59;3904557;34;20657;-85
2022/01/05 04:13:18;;;;;;;21.65;14.48;;;5.20;84.50;;;3.90;79.77;95235.88;3903478;34;20316;-85
2022/01/05 04:15:44;;;;;;;23.15;14.13;;;5.20;84.20;;;3.90;79.73;95233.19;3965771;34;20329;-85
2022/01/05 04:18:10;;;;;;;25.23;14.70;;;5.20;84.30;;;3.90;79.83;95245.88;3970712;34;20580;-85
2022/01/05 04:20:37;;;;;;;25.60;14.30;;;5.20;84.30;;;3.90;80.12;95235.88;3945789;34;20300;-84
2022/01/05 04:23:03;;;;;;;24.75;14.40;;;5.20;84.20;;;3.90;80.08;95237.75;3970196;34;20337;-85
2022/01/05 04:25:31;;;;;;;24.13;14.57;;;5.20;84.30;;;3.90;79.83;95237.75;3966571;34;20306;-85
2022/01/05 04:27:57;;;;;;;23.52;14.82;;;5.10;84.30;;;3.88;80.14;95238.03;3926695;34;20225;-84
2022/01/05 04:30:23;;;;;;;26.08;15.27;;;5.10;84.30;;;3.90;80.19;95243.19;3906733;34;20359;-85
2022/01/05 04:32:50;;;;;;;21.35;13.70;;;5.10;84.50;;;3.88;79.68;95243.44;3968152;34;20301;-85
2022/01/05 04:35:16;;;;;;;24.60;15.45;;;5.20;84.30;;;3.88;79.87;95243.44;3967992;34;20013;-85
2022/01/05 04:37:43;;;;;;;26.08;14.82;;;5.10;84.10;;;3.89;79.91;95238.84;3969119;34;20343;-85
2022/01/05 04:40:12;;;;;;;22.08;14.07;;;5.10;84.10;;;3.88;79.52;95243.44;3906126;34;20393;-85
2022/01/05 04:42:39;;;;;;;23.70;14.95;;;5.10;84.10;;;3.88;80.11;95237.19;3966512;34;20373;-85
2022/01/05 04:45:06;;;;;;;25.00;14.80;;;5.10;84.30;;;3.87;79.78;95246.41;3985670;34;20355;-85
2022/01/05 04:47:33;;;;;;;23.83;14.23;;;5.10;84.10;;;3.88;79.83;95248.84;3944934;34;20295;-85
2022/01/05 04:49:59;;;;;;;21.02;12.95;;;5.10;84.20;;;3.88;79.51;95256.16;3947171;34;20002;-85
2022/01/05 04:52:25;;;;;;;23.85;15.05;;;5.10;84.10;;;3.86;79.94;95261.81;3972005;34;20002;-85
2022/01/05 04:54:51;;;;;;;24.13;14.55;;;5.10;84.30;;;3.87;79.67;95266.16;3905755;35;20297;-84
2022/01/05 04:57:18;;;;;;;22.65;13.52;;;5.10;84.20;;;3.88;79.79;95264.25;3944032;35;20305;-85
2022/01/05 04:59:44;;;;;;;22.33;14.60;;;5.10;84.30;;;3.85;79.87;95257.47;3985746;35;20013;-85
2022/01/05 05:02:14;;;;;;;22.75;13.90;;;5.10;84.20;;;3.88;79.38;95259.69;3964555;34;20092;-84
2022/01/05 05:04:41;;;;;;;22.83;14.10;;;5.10;84.10;;;3.88;79.87;95270.53;3965187;35;20069;-85
2022/01/05 05:07:07;;;;;;;23.60;14.30;;;5.10;84.30;;;3.88;79.89;95265.09;3903427;35;20534;-85
2022/01/05 05:09:33;;;;;;;26.15;15.07;;;5.10;84.40;;;3.87;80.19;95258.06;3965991;35;20422;-84
2022/01/05 05:11:59;;;;;;;21.77;13.57;;;5.10;84.40;;;3.85;79.89;95249.34;3986022;34;20373;-85
2022/01/05 05:14:26;;;;;;;21.90;13.95;;;5.10;84.30;;;3.84;79.85;95240.44;3943792;35;20306;-85
2022/01/05 05:16:52;;;;;;;24.50;15.38;;;5.10;84.20;;;3.84;79.78;95248.56;3964174;35;20006;-85
2022/01/05 05:19:18;;;;;;;23.83;13.38;;;5.10;84.20;;;3.87;80.00;95258.06;3962804;35;20316;-84
2022/01/05 05:21:45;;;;;;;26.85;13.65;;;5.10;84.10;;;3.86;79.66;95244.78;3942490;34;20351;-85
2022/01/05 05:24:15;;;;;;;25.35;14.90;;;5.10;84.10;;;3.85;79.88;95249.34;3957553;35;20346;-85
2022/01/05 05:26:42;;;;;;;24.65;14.70;;;5.10;84.10;;;3.84;79.59;95253.97;3956321;34;20041;-84
2022/01/05 05:29:08;;;;;;;22.42;14.32;;;5.10;84.00;;;3.84;79.66;95243.13;3934180;35;20002;-84
2022/01/05 05:31:35;;;;;;;24.15;15.23;;;5.10;84.10;;;3.85;79.78;95246.66;3952758;35;20338;-85
2022/01/05 05:34:01;;;;;;;26.73;15.95;;;5.10;84.10;;;3.84;79.95;95251.25;3951176;35;20398;-85
2022/01/05 05:36:27;;;;;;;28.02;16.58;;;5.10;84.10;;;3.85;79.78;95254.78;3930412;35;20001;-85
2022/01/05 05:38:54;;;;;;;22.17;15.20;;;5.10;84.10;;;3.84;79.86;95258.53;3889898;35;20326;-85
2022/01/05 05:41:20;;;;;;;24.52;14.32;;;5.10;84.00;;;3.84;79.97;95269.38;3974382;35;20287;-85
2022/01/05 05:43:48;;;;;;;22.15;14.73;;;5.10;84.00;;;3.84;79.65;95258.53;3933952;35;20014;-85
2022/01/05 05:46:16;;;;;;;25.55;15.93;;;5.10;84.10;;;3.84;80.02;95263.97;3893150;35;20286;-85
2022/01/05 05:48:43;;;;;;;25.00;15.52;;;5.10;84.10;;;3.84;79.43;95258.53;3892312;35;20313;-84
2022/01/05 05:51:09;;;;;;;24.40;15.60;;;5.10;84.10;;;3.84;79.63;95261.25;3953651;35;20010;-84
2022/01/05 05:53:36;;;;;;;26.70;15.07;;;5.10;84.00;;;3.81;79.98;95249.03;3954146;34;20331;-85
2022/01/05 05:56:02;;;;;;;24.42;13.88;;;5.10;84.10;;;3.83;79.59;95257.75;3933562;34;20276;-85
2022/01/05 05:58:28;;;;;;;24.23;14.95;;;5.10;84.00;;;3.83;79.75;95256.91;3954706;34;20088;-85
2022/01/05 06:00:54;;;;;;;27.38;16.98;;;5.10;84.10;;;3.83;79.33;95256.91;3934741;34;20691;-85
2022/01/05 06:03:21;;;;;;;27.98;18.40;;;5.10;83.90;;;3.83;79.78;95262.31;3956096;34;20300;-85
2022/01/05 06:05:47;;;;;;;28.20;16.65;;;5.10;84.00;;;3.82;79.42;95266.09;3955744;34;20280;-85
2022/01/05 06:08:13;;;;;;;24.90;16.33;;;5.10;84.00;;;3.82;79.78;95266.09;3976591;34;20029;-85
2022/01/05 06:10:39;;;;;;;23.85;15.25;;;5.10;84.00;;;3.83;79.32;95273.16;3895930;34;20330;-85
2022/01/05 06:13:06;;;;;;;26.77;16.33;;;5.10;84.00;;;3.83;79.42;95265.03;3958334;34;20624;-85
2022/01/05 06:15:32;;;;;;;27.27;17.27;;;5.10;83.90;;;3.82;79.52;95269.63;3982591;34;20332;-85
2022/01/05 06:17:59;;;;;;;28.83;16.95;;;5.10;84.00;;;3.84;79.62;95272.91;3985795;34;20330;-85
2022/01/05 06:20:25;;;;;;;28.45;17.73;;;5.10;83.80;;;3.84;79.65;95270.22;3918448;34;20010;-84
2022/01/05 06:22:51;;;;;;;28.67;16.80;;;5.10;83.70;;;3.85;79.11;95276.44;3958712;34;20376;-84
2022/01/05 06:25:18;;;;;;;29.67;17.60;;;5.10;83.70;;;3.88;79.01;95275.94;3937697;34;20324;-85
2022/01/05 06:27:44;;;;;;;28.27;17.90;;;5.10;83.60;;;3.88;79.39;95265.09;3924984;34;20009;-85
2022/01/05 06:30:11;;;;;;;29.25;17.58;;;5.10;83.50;;;3.89;78.86;95261.31;3964504;34;20013;-85
2022/01/05 06:32:47;;;;;;;26.58;16.92;;;5.10;83.40;;;3.91;78.86;95270.03;3898921;34;20013;-85
2022/01/05 06:35:14;;;;;;;27.55;16.92;;;5.20;83.40;;;3.93;78.86;95270.59;3900841;34;20611;-85
2022/01/05 06:37:41;;;;;;;27.55;17.88;;;5.20;83.20;;;3.94;78.78;95257.84;3964863;34;20342;-85
2022/01/05 06:40:08;;;;;;;31.88;19.35;;;5.20;83.20;;;3.95;78.63;95267.63;3963635;34;20317;-85
2022/01/05 06:42:34;;;;;;;30.52;17.98;;;5.20;83.00;;;3.96;78.79;95261.13;3942722;34;20016;-85
2022/01/05 06:45:00;;;;;;;30.05;18.42;;;5.20;83.10;;;3.96;78.59;95267.38;3921511;34;20016;-85
2022/01/05 06:47:27;;;;;;;26.38;17.42;;;5.20;83.10;;;3.99;78.83;95271.47;3963865;34;20560;-85
2022/01/05 06:49:53;;;;;;;30.60;18.75;;;5.20;82.90;;;4.01;78.78;95268.50;3942881;34;20257;-84
2022/01/05 06:52:19;;;;;;;30.88;18.20;;;5.20;82.90;;;4.02;78.42;95270.16;3942684;34;20065;-85
2022/01/05 06:54:46;;;;;;;30.30;18.38;;;5.30;82.90;;;4.04;78.57;95270.72;3900917;34;20330;-85
2022/01/05 06:57:12;;;;;;;31.77;19.30;;;5.30;82.80;;;4.04;78.64;95268.81;3921788;34;20287;-85
2022/01/05 06:59:39;;;;;;;33.13;19.48;;;5.30;82.60;;;4.05;78.82;95259.63;3956234;34;20014;-85
2022/01/05 07:02:05;;;;;;;35.63;19.75;;;5.30;82.70;;;4.07;78.53;95262.06;3938686;35;20233;-85
2022/01/05 07:04:32;;;;;;;31.65;18.85;;;5.30;82.90;;;4.10;78.92;95261.56;3941470;34;20744;-85
2022/01/05 07:06:58;;;;;;;33.30;19.25;;;5.40;83.10;;;4.11;78.94;95265.91;3938944;35;20030;-85
2022/01/05 07:09:25;;;;;;;33.83;19.80;;;5.40;83.00;;;4.14;79.15;95271.63;3939172;35;20315;-85
2022/01/05 07:11:51;;;;;;;31.33;18.92;;;5.40;83.20;;;4.15;79.19;95250.81;3939113;35;20287;-85
2022/01/05 07:14:17;;;;;;;34.53;20.50;;;5.40;83.30;;;4.19;79.11;95260.06;3962269;34;20043;-84
2022/01/05 07:16:44;;;;;;;37.20;22.30;;;5.50;83.00;;;4.21;78.71;95246.25;3901700;34;20322;-85
2022/01/05 07:19:10;;;;;;;39.40;21.83;;;5.50;82.70;;;4.25;78.43;95260.94;3966225;34;20280;-85
2022/01/05 07:21:36;;;;;;;36.38;22.02;;;5.50;82.70;;;4.26;78.32;95249.03;3965822;34;20006;-85
2022/01/05 07:24:04;;;;;;;35.03;22.38;;;5.50;82.60;;;4.29;78.76;95243.91;3966145;34;20266;-85
2022/01/05 07:26:31;;;;;;;36.92;23.15;;;5.60;82.60;;;4.30;78.20;95240.16;3924244;34;20018;-85
2022/01/05 07:28:58;;;;;;;37.00;21.35;;;5.60;83.30;;;4.33;77.82;95243.38;3966412;34;20304;-85
2022/01/05 07:31:24;;;;;;;37.63;23.10;;;5.60;82.30;;;4.37;78.26;95249.94;3904301;34;20061;-85
2022/01/05 07:33:50;;;;;;;37.97;23.38;;;5.60;82.40;;;4.40;78.41;95254.88;3966037;34;20328;-85
2022/01/05 07:36:17;;;;;;;36.58;23.13;;;5.60;82.40;;;4.42;78.38;95255.44;3903805;34;20367;-85
2022/01/05 07:38:43;;;;;;;37.45;23.35;;;5.70;82.40;;;4.45;78.27;95257.63;3966692;34;20041;-85
2022/01/05 07:41:09;;;;;;;42.03;25.58;;;5.70;82.30;;;4.51;78.29;95255.81;3986623;34;20080;-85
2022/01/05 07:43:36;;;;;;;41.80;25.77;;;5.70;82.10;;;4.51;77.71;95248.47;3963990;34;20315;-85
2022/01/05 07:46:02;;;;;;;42.58;24.85;;;5.80;82.20;;;4.57;77.87;95252.88;3963539;34;20377;-84
2022/01/05 07:48:29;;;;;;;40.90;24.15;;;5.80;82.20;;;4.58;77.80;95238.22;3985578;34;20776;-85
2022/01/05 07:50:55;;;;;;;41.20;24.77;;;5.80;82.20;;;4.63;78.01;95247.50;3964380;34;20051;-85
2022/01/05 07:53:21;;;;;;;39.00;23.80;;;5.80;82.20;;;4.65;77.66;95246.16;3901593;34;20062;-85
2022/01/05 07:55:48;;;;;;;42.10;25.23;;;5.90;82.20;;;4.69;77.56;95243.78;3962682;34;20663;-85
2022/01/05 07:58:14;;;;;;;39.60;24.63;;;5.90;82.10;;;4.74;77.58;95241.09;3964819;34;20010;-85
2022/01/05 08:00:40;;;;;;;40.00;24.75;;;5.90;82.10;;;4.76;77.74;95233.53;3966034;34;20012;-85
2022/01/05 08:03:07;;;;;;;39.22;24.13;;;6.00;82.00;;;4.80;77.42;95225.69;3905283;34;20317;-85
2022/01/05 08:05:33;;;;;;;41.17;24.33;;;6.00;81.90;;;4.82;77.60;95229.78;3905024;34;20010;-85
2022/01/05 08:07:59;;;;;;;39.58;24.17;;;6.00;81.80;;;4.86;77.75;95230.09;3988380;34;20328;-86
2022/01/05 08:10:26;;;;;;;42.27;26.73;;;6.00;81.70;;;4.87;77.15;95231.72;3969033;34;20318;-85
2022/01/05 08:12:52;;;;;;;43.83;25.15;;;6.10;81.60;;;4.84;77.45;95233.03;3948684;34;20292;-85
2022/01/05 08:15:18;;;;;;;39.83;24.75;;;6.10;81.60;;;4.79;77.20;95227.59;3947838;35;20037;-85
2022/01/05 08:17:45;;;;;;;40.85;25.35;;;6.00;81.40;;;4.76;77.69;95222.69;3967458;34;20356;-85
2022/01/05 08:20:11;;;;;;;37.42;23.73;;;6.00;81.40;;;4.76;77.68;95225.38;3977580;34;20507;-85
2022/01/05 08:22:44;;;;;;;37.28;24.75;;;6.00;81.60;;;4.77;77.46;95218.91;3975753;34;20282;-85
2022/01/05 08:25:15;;;;;;;38.83;24.15;;;6.00;81.70;;;4.77;77.64;95224.31;3949208;34;20299;-85
2022/01/05 08:27:51;;;;;;;40.30;25.45;;;6.00;81.80;;;4.79;77.51;95219.47;3962879;34;20555;-85
2022/01/05 08:30:20;;;;;;;;;;;6.00;81.90;;;4.82;77.24;95218.94;3963569;34;20309;-85
2022/01/05 08:32:47;;;;;;;38.20;23.30;;;6.00;81.70;;;4.85;77.29;95223.03;3936890;34;20326;-85
2022/01/05 08:35:15;;;;;;;42.85;24.95;;;6.00;81.70;;;4.84;77.63;95227.63;3894864;34;20021;-85
2022/01/05 08:37:44;;;;;;;38.92;23.83;;;6.00;81.60;;;4.87;77.40;95232.53;3957591;34;20308;-85
2022/01/05 08:40:12;;;;;;;37.88;24.20;;;6.10;81.70;;;4.90;77.33;95237.44;3958159;34;20004;-85
2022/01/05 08:42:40;;;;;;;36.53;23.48;;;6.10;81.60;;;4.96;77.40;95240.22;3957383;34;20597;-85
2022/01/05 08:45:08;;;;;;;40.67;24.23;;;6.10;81.60;;;4.98;77.15;95240.75;3913283;34;20233;-85
2022/01/05 08:47:34;;;;;;;36.63;24.30;;;6.20;81.40;;;5.00;76.96;95236.72;3933957;34;20335;-85
2022/01/05 08:50:00;;;;;;;38.20;23.60;;;6.20;81.20;;;5.03;76.95;95236.22;3892429;34;20229;-85
2022/01/05 08:52:27;;;;;;;36.75;22.58;;;6.20;81.10;;;5.05;76.68;95244.06;3954508;34;20290;-85
2022/01/05 08:54:53;;;;;;;40.42;23.90;;;6.20;81.00;;;5.08;76.92;95238.13;3953596;34;20056;-85
2022/01/05 08:57:19;;;;;;;37.53;22.38;;;6.30;80.90;;;5.06;76.52;95234.88;3975026;35;20041;-85
2022/01/05 08:59:47;;;;;;;37.08;22.88;;;6.30;80.80;;;5.07;76.63;95236.50;3932869;35;20568;-84
2022/01/05 09:02:15;;;;;;;34.45;21.50;;;6.30;80.80;;;5.05;76.53;95230.50;3954230;34;20013;-85
2022/01/05 09:04:42;;;;;;;37.75;23.25;;;6.30;80.80;;;5.05;76.89;95233.22;3953017;35;20262;-85
2022/01/05 09:07:10;;;;;;;35.28;22.05;;;6.30;80.80;;;5.05;76.59;95222.38;3954652;34;20061;-85
2022/01/05 09:09:37;;;;;;;33.40;21.75;;;6.30;80.80;;;5.04;76.70;95226.16;3955773;35;19991;-85
2022/01/05 09:12:04;;;;;;;30.73;20.25;;;6.30;80.90;;;5.05;76.90;95222.38;3934875;35;20357;-85
2022/01/05 09:14:31;;;;;;;32.70;21.45;;;6.30;80.90;;;5.05;76.74;95222.38;3913919;35;20329;-85
2022/01/05 09:16:58;;;;;;;31.92;21.23;;;6.30;80.80;;;5.03;76.65;95217.22;3894226;35;20213;-85
2022/01/05 09:19:24;;;;;;;30.85;20.48;;;6.30;80.80;;;5.00;76.23;95220.44;3914997;35;20297;-85
2022/01/05 09:21:50;;;;;;;30.95;20.10;;;6.20;80.70;;;4.96;76.92;95219.31;3959177;35;20014;-84
2022/01/05 09:24:17;;;;;;;32.25;20.00;;;6.20;80.80;;;4.95;76.94;95206.84;3982528;34;20668;-85
2022/01/05 09:26:43;;;;;;;32.58;20.70;;;6.20;80.80;;;4.90;77.12;95210.31;3961443;34;20096;-85
2022/01/05 09:29:09;;;;;;;29.52;20.55;;;6.20;80.90;;;4.88;77.35;95212.47;3981916;34;20351;-84
2022/01/05 09:31:36;;;;;;;30.02;19.63;;;6.10;81.10;;;4.90;77.22;95195.97;3902964;34;20542;-85
2022/01/05 09:34:02;;;;;;;31.17;20.17;;;6.10;81.20;;;4.91;77.21;95200.28;3964474;34;20009;-85
2022/01/05 09:36:36;;;;;;;29.67;19.52;;;6.20;81.20;;;4.92;77.02;95185.66;3922667;34;20085;-85
2022/01/05 09:41:57;;;;;;;29.80;18.83;;;6.20;81.00;;;4.96;77.19;95178.63;3950154;34;20013;-84
2022/01/05 09:44:33;;;;;;;28.53;18.00;;;6.20;81.10;;;4.96;76.74;95175.94;3943232;34;20311;-84
2022/01/05 09:47:23;;;;;;;30.25;19.27;;;6.20;81.00;;;4.97;77.00;95176.75;3938847;34;20375;-85
2022/01/05 09:50:04;;;;;;;30.17;19.65;;;6.20;81.00;;;4.97;76.58;95172.13;3986339;34;20372;-85
2022/01/05 09:52:34;;;;;;;30.25;18.88;;;6.20;80.90;;;4.96;76.84;95166.97;3943773;34;20009;-85
2022/01/05 09:55:02;;;;;;;29.92;19.00;;;6.20;80.90;;;4.91;76.92;95165.03;3902122;34;20708;-85
2022/01/05 09:57:29;;;;;;;30.40;19.23;;;6.20;81.70;;;4.87;77.13;95162.03;3964531;34;20217;-85
2022/01/05 09:59:56;;;;;;;26.95;18.48;;;6.20;80.90;;;4.85;77.54;95161.47;3904402;34;20523;-85
2022/01/05 10:02:22;;;;;;;28.50;18.63;;;6.10;81.20;;;4.86;77.27;95167.72;3967184;34;20313;-85
2022/01/05 10:04:49;;;;;;;28.27;18.00;;;6.10;81.30;;;4.87;77.27;95153.09;3966648;34;20278;-85
2022/01/05 10:07:16;;;;;;;25.90;18.70;;;6.10;81.30;;;4.87;77.05;95139.53;3946061;34;20389;-85
2022/01/05 10:09:44;;;;;;;28.38;18.33;;;6.20;81.20;;;4.91;76.90;95143.34;3988189;34;20006;-85
2022/01/05 10:12:13;;;;;;;28.42;17.85;;;6.20;81.20;;;4.91;76.88;95130.59;3945548;34;19998;-85
2022/01/05 10:14:46;;;;;;;30.48;18.90;;;6.20;81.10;;;4.95;77.09;95140.94;3924263;34;20084;-85
2022/01/05 10:17:26;;;;;;;26.02;17.63;;;6.20;81.10;;;4.96;77.03;95137.94;3986365;34;20293;-84
2022/01/05 10:20:06;;;;;;;29.33;18.02;;;6.20;81.00;;;4.98;77.02;95126.84;3924283;34;20017;-84
2022/01/05 10:22:35;;;;;;;28.38;17.88;;;6.20;80.90;;;4.99;76.70;95131.19;3965360;34;20333;-84
2022/01/05 10:25:16;;;;;;;29.80;17.48;;;6.20;80.90;;;5.00;77.03;95124.69;3985731;34;20308;-83